sensor_id;sensor_type;location;lat;lon;timestamp;pressure;altitude;pressure_sealevel;temperature;humidity
10700;BME280;5401;41.986;21.452;2023-08-07T00:01:22;97702.41;;;22.82;50.09
10700;BME280;5401;41.986;21.452;2023-08-07T00:03:50;97706.75;;;22.83;50.58
10700;BME280;5401;41.986;21.452;2023-08-07T00:06:17;97715.66;;;22.75;50.78
10700;BME280;5401;41.986;21.452;2023-08-07T00:08:45;97722.75;;;22.62;50.94
10700;BME280;5401;41.986;21.452;2023-08-07T00:11:12;97719.59;;;22.55;51.05
10700;BME280;5401;41.986;21.452;2023-08-07T00:13:39;97704.56;;;22.45;51.03
10700;BME280;5401;41.986;21.452;2023-08-07T00:16:08;97718.59;;;22.38;51.28
10700;BME280;5401;41.986;21.452;2023-08-07T00:18:36;97722.22;;;22.34;51.27
10700;BME280;5401;41.986;21.452;2023-08-07T00:21:04;97730.22;;;22.30;51.40
10700;BME280;5401;41.986;21.452;2023-08-07T00:23:31;97726.47;;;22.26;51.17
10700;BME280;5401;41.986;21.452;2023-08-07T00:25:59;97737.03;;;22.15;52.02
10700;BME280;5401;41.986;21.452;2023-08-07T00:28:26;97731.22;;;22.03;51.77
10700;BME280;5401;41.986;21.452;2023-08-07T00:30:54;97736.56;;;21.94;51.89
10700;BME280;5401;41.986;21.452;2023-08-07T00:33:23;97741.59;;;21.87;52.38
10700;BME280;5401;41.986;21.452;2023-08-07T00:35:50;97726.63;;;21.85;52.83
10700;BME280;5401;41.986;21.452;2023-08-07T00:38:18;97721.41;;;21.88;52.44
10700;BME280;5401;41.986;21.452;2023-08-07T00:40:45;97725.16;;;21.92;52.55
10700;BME280;5401;41.986;21.452;2023-08-07T00:43:12;97731.19;;;21.89;52.96
10700;BME280;5401;41.986;21.452;2023-08-07T00:45:43;97723.56;;;21.73;52.76
10700;BME280;5401;41.986;21.452;2023-08-07T00:48:12;97744.34;;;21.69;53.29
10700;BME280;5401;41.986;21.452;2023-08-07T00:50:41;97732.59;;;21.55;53.32
10700;BME280;5401;41.986;21.452;2023-08-07T00:53:09;97746.50;;;21.54;53.84
10700;BME280;5401;41.986;21.452;2023-08-07T00:55:37;97751.50;;;21.47;53.38
10700;BME280;5401;41.986;21.452;2023-08-07T00:58:04;97753.41;;;21.47;53.66
10700;BME280;5401;41.986;21.452;2023-08-07T01:00:32;97756.09;;;21.51;54.21
10700;BME280;5401;41.986;21.452;2023-08-07T01:03:01;97747.59;;;21.53;53.81
10700;BME280;5401;41.986;21.452;2023-08-07T01:05:29;97753.94;;;21.48;54.09
10700;BME280;5401;41.986;21.452;2023-08-07T01:07:58;97757.47;;;21.49;54.33
10700;BME280;5401;41.986;21.452;2023-08-07T01:10:35;97761.81;;;21.50;54.28
10700;BME280;5401;41.986;21.452;2023-08-07T01:13:14;97761.22;;;21.53;53.89
10700;BME280;5401;41.986;21.452;2023-08-07T01:15:47;97760.69;;;21.51;54.53
10700;BME280;5401;41.986;21.452;2023-08-07T01:18:18;97768.31;;;21.54;54.77
10700;BME280;5401;41.986;21.452;2023-08-07T01:20:45;97777.88;;;21.51;54.82
10700;BME280;5401;41.986;21.452;2023-08-07T01:23:14;97773.53;;;21.50;55.12
10700;BME280;5401;41.986;21.452;2023-08-07T01:25:42;97775.53;;;21.45;54.97
10700;BME280;5401;41.986;21.452;2023-08-07T01:28:14;97772.28;;;21.43;54.82
10700;BME280;5401;41.986;21.452;2023-08-07T01:30:47;97770.13;;;21.40;54.86
10700;BME280;5401;41.986;21.452;2023-08-07T01:33:22;97781.31;;;21.39;55.00
10700;BME280;5401;41.986;21.452;2023-08-07T01:35:53;97786.22;;;21.37;55.25
10700;BME280;5401;41.986;21.452;2023-08-07T01:38:25;97782.31;;;21.24;55.54
10700;BME280;5401;41.986;21.452;2023-08-07T01:40:54;97784.38;;;21.14;55.54
10700;BME280;5401;41.986;21.452;2023-08-07T01:43:22;97786.53;;;21.17;55.85
10700;BME280;5401;41.986;21.452;2023-08-07T01:45:49;97785.47;;;21.13;55.72
10700;BME280;5401;41.986;21.452;2023-08-07T01:48:16;97793.19;;;21.06;56.19
10700;BME280;5401;41.986;21.452;2023-08-07T01:50:44;97791.78;;;21.09;56.30
10700;BME280;5401;41.986;21.452;2023-08-07T01:53:12;97796.38;;;21.13;56.30
10700;BME280;5401;41.986;21.452;2023-08-07T01:55:41;97793.81;;;21.21;56.61
10700;BME280;5401;41.986;21.452;2023-08-07T01:58:08;97791.00;;;21.26;56.23
10700;BME280;5401;41.986;21.452;2023-08-07T02:00:35;97789.41;;;21.25;56.36
10700;BME280;5401;41.986;21.452;2023-08-07T02:03:03;97800.81;;;21.27;55.88
10700;BME280;5401;41.986;21.452;2023-08-07T02:05:30;97803.66;;;21.17;56.67
10700;BME280;5401;41.986;21.452;2023-08-07T02:07:58;97814.56;;;21.17;56.60
10700;BME280;5401;41.986;21.452;2023-08-07T02:10:25;97812.06;;;21.21;56.75
10700;BME280;5401;41.986;21.452;2023-08-07T02:12:57;97806.44;;;21.12;57.05
10700;BME280;5401;41.986;21.452;2023-08-07T02:15:24;97815.75;;;21.07;57.16
10700;BME280;5401;41.986;21.452;2023-08-07T02:17:52;97822.91;;;21.03;56.83
10700;BME280;5401;41.986;21.452;2023-08-07T02:20:19;97819.09;;;21.04;57.49
10700;BME280;5401;41.986;21.452;2023-08-07T02:22:47;97814.41;;;21.09;57.37
10700;BME280;5401;41.986;21.452;2023-08-07T02:25:15;97822.19;;;21.15;57.58
10700;BME280;5401;41.986;21.452;2023-08-07T02:27:42;97833.00;;;21.20;56.80
10700;BME280;5401;41.986;21.452;2023-08-07T02:30:11;97833.91;;;21.16;57.33
10700;BME280;5401;41.986;21.452;2023-08-07T02:32:39;97831.94;;;20.98;57.40
10700;BME280;5401;41.986;21.452;2023-08-07T02:35:11;97836.06;;;20.96;57.90
10700;BME280;5401;41.986;21.452;2023-08-07T02:37:38;97827.41;;;21.12;57.42
10700;BME280;5401;41.986;21.452;2023-08-07T02:40:06;97830.16;;;21.30;57.71
10700;BME280;5401;41.986;21.452;2023-08-07T02:42:34;97827.97;;;21.32;57.39
10700;BME280;5401;41.986;21.452;2023-08-07T02:45:02;97834.13;;;21.19;57.83
10700;BME280;5401;41.986;21.452;2023-08-07T02:47:31;97832.06;;;21.11;57.64
10700;BME280;5401;41.986;21.452;2023-08-07T02:49:58;97837.41;;;21.16;57.35
10700;BME280;5401;41.986;21.452;2023-08-07T02:52:26;97838.06;;;21.09;57.86
10700;BME280;5401;41.986;21.452;2023-08-07T02:54:53;97833.84;;;20.98;57.60
10700;BME280;5401;41.986;21.452;2023-08-07T02:57:21;97837.25;;;21.08;58.03
10700;BME280;5401;41.986;21.452;2023-08-07T02:59:48;97851.38;;;21.10;57.84
10700;BME280;5401;41.986;21.452;2023-08-07T03:02:16;97846.81;;;21.06;58.08
10700;BME280;5401;41.986;21.452;2023-08-07T03:04:46;97853.22;;;21.14;58.20
10700;BME280;5401;41.986;21.452;2023-08-07T03:07:13;97857.94;;;21.09;58.16
10700;BME280;5401;41.986;21.452;2023-08-07T03:09:41;97863.44;;;21.04;58.57
10700;BME280;5401;41.986;21.452;2023-08-07T03:12:12;97862.56;;;21.09;58.16
10700;BME280;5401;41.986;21.452;2023-08-07T03:14:39;97854.03;;;20.97;58.65
10700;BME280;5401;41.986;21.452;2023-08-07T03:17:07;97852.56;;;20.81;59.02
10700;BME280;5401;41.986;21.452;2023-08-07T03:19:35;97853.97;;;20.78;59.16
10700;BME280;5401;41.986;21.452;2023-08-07T03:22:04;97852.50;;;20.63;59.31
10700;BME280;5401;41.986;21.452;2023-08-07T03:24:31;97853.28;;;20.35;59.38
10700;BME280;5401;41.986;21.452;2023-08-07T03:26:59;97853.34;;;20.25;59.64
10700;BME280;5401;41.986;21.452;2023-08-07T03:29:26;97860.25;;;20.13;59.61
10700;BME280;5401;41.986;21.452;2023-08-07T03:31:54;97857.69;;;19.98;60.48
10700;BME280;5401;41.986;21.452;2023-08-07T03:34:21;97855.81;;;19.94;59.91
10700;BME280;5401;41.986;21.452;2023-08-07T03:36:48;97858.59;;;19.84;60.45
10700;BME280;5401;41.986;21.452;2023-08-07T03:39:17;97863.72;;;19.85;60.34
10700;BME280;5401;41.986;21.452;2023-08-07T03:41:45;97865.53;;;20.00;60.69
10700;BME280;5401;41.986;21.452;2023-08-07T03:44:12;97862.66;;;20.47;60.23
10700;BME280;5401;41.986;21.452;2023-08-07T03:46:40;97872.56;;;20.95;59.37
10700;BME280;5401;41.986;21.452;2023-08-07T03:49:07;97874.44;;;21.41;58.70
10700;BME280;5401;41.986;21.452;2023-08-07T03:51:34;97874.56;;;21.90;58.03
10700;BME280;5401;41.986;21.452;2023-08-07T03:54:02;97879.22;;;22.40;57.30
10700;BME280;5401;41.986;21.452;2023-08-07T03:56:31;97878.59;;;22.92;55.87
10700;BME280;5401;41.986;21.452;2023-08-07T03:59:02;97883.13;;;23.50;55.05
10700;BME280;5401;41.986;21.452;2023-08-07T04:01:30;97883.13;;;24.12;54.04
10700;BME280;5401;41.986;21.452;2023-08-07T04:03:57;97885.84;;;24.69;53.27
10700;BME280;5401;41.986;21.452;2023-08-07T04:06:25;97900.84;;;25.31;52.44
10700;BME280;5401;41.986;21.452;2023-08-07T04:08:53;97898.78;;;25.83;51.08
10700;BME280;5401;41.986;21.452;2023-08-07T04:11:20;97894.78;;;26.31;50.83
10700;BME280;5401;41.986;21.452;2023-08-07T04:13:49;97894.38;;;27.00;49.56
10700;BME280;5401;41.986;21.452;2023-08-07T04:16:16;97897.97;;;27.46;48.25
10700;BME280;5401;41.986;21.452;2023-08-07T04:18:44;97904.09;;;28.08;47.48
10700;BME280;5401;41.986;21.452;2023-08-07T04:21:11;97902.66;;;28.83;46.47
10700;BME280;5401;41.986;21.452;2023-08-07T04:23:39;97906.38;;;29.55;45.35
10700;BME280;5401;41.986;21.452;2023-08-07T04:26:06;97915.69;;;30.10;44.24
10700;BME280;5401;41.986;21.452;2023-08-07T04:28:34;97916.19;;;30.62;43.68
10700;BME280;5401;41.986;21.452;2023-08-07T04:31:02;97915.25;;;31.40;42.71
10700;BME280;5401;41.986;21.452;2023-08-07T04:33:30;97915.41;;;32.08;41.11
10700;BME280;5401;41.986;21.452;2023-08-07T04:35:57;97908.38;;;32.63;40.61
10700;BME280;5401;41.986;21.452;2023-08-07T04:38:25;97913.75;;;33.12;40.04
10700;BME280;5401;41.986;21.452;2023-08-07T04:40:52;97913.69;;;33.72;39.39
10700;BME280;5401;41.986;21.452;2023-08-07T04:43:20;97914.97;;;34.48;37.92
10700;BME280;5401;41.986;21.452;2023-08-07T04:45:48;97917.09;;;34.87;37.47
10700;BME280;5401;41.986;21.452;2023-08-07T04:48:17;97907.09;;;35.15;36.90
10700;BME280;5401;41.986;21.452;2023-08-07T04:50:46;97917.72;;;35.78;36.44
10700;BME280;5401;41.986;21.452;2023-08-07T04:53:14;97925.06;;;36.53;35.19
10700;BME280;5401;41.986;21.452;2023-08-07T04:55:41;97917.25;;;36.86;34.49
10700;BME280;5401;41.986;21.452;2023-08-07T04:58:09;97909.44;;;36.42;34.70
10700;BME280;5401;41.986;21.452;2023-08-07T05:00:36;97907.88;;;36.48;34.18
10700;BME280;5401;41.986;21.452;2023-08-07T05:03:04;97903.25;;;36.76;34.58
10700;BME280;5401;41.986;21.452;2023-08-07T05:05:33;97902.69;;;37.27;33.88
10700;BME280;5401;41.986;21.452;2023-08-07T05:08:00;97913.81;;;37.13;33.76
10700;BME280;5401;41.986;21.452;2023-08-07T05:10:28;97905.56;;;36.03;34.80
10700;BME280;5401;41.986;21.452;2023-08-07T05:12:55;97899.97;;;35.21;35.65
10700;BME280;5401;41.986;21.452;2023-08-07T05:15:24;97910.50;;;35.02;36.04
10700;BME280;5401;41.986;21.452;2023-08-07T05:17:52;97901.56;;;34.86;36.33
